LA HONDA (LAH)

Elevation: 425' · SAN GREGORIO CR basin · Operator: CAL FIRE

Query executed Friday at 1:26:46   clock

Provisional data, subject to change.
Select a sensor type for a plot of data.

Earlier

Date   /   Time   RAIN     TEMP     REL HUM     FUEL MS     FUEL TP     WIND SP     WIND DR     PEAK WS     PEAK WD     SOLAR R     BAT VOL    
(PDT)INCHES   DEG F   %   %   DEG F   MPH   DEG   MPH   DEG   W/M^2   VOLTS  
05/21/2015 01:00 28.23 50 99 22 50 1 289 3 80 0.00 12.8
05/21/2015 02:00 28.23 50 99 23 49 1 103 3 76 0.00 12.8
05/21/2015 03:00 28.24 49 99 23 50 2 66 3 188 0.00 12.7
05/21/2015 04:00 28.24 49 99 24 49 2 81 4 68 0.00 12.7
05/21/2015 05:00 28.24 50 99 24 50 2 87 3 65 0.00 12.7
05/21/2015 06:00 28.24 50 99 25 50 2 73 4 78 1.00 12.7
05/21/2015 07:00 28.26 50 99 25 51 2 60 3 70 20.00 12.7
05/21/2015 08:00 28.26 51 99 25 53 2 72 4 77 56.00 12.9
05/21/2015 09:00 28.27 54 95 25 56 2 149 4 115 145.00 13.9
05/21/2015 10:00 28.27 55 94 25 59 5 216 7 224 225.00 13.9
05/21/2015 11:00 28.27 56 91 25 59 3 235 7 227 278.00 14.2
05/21/2015 12:00 28.29 57 91 25 59 2 270 10 196 244.00 14.0
05/21/2015 13:00 28.29 59 84 24 62 3 275 7 228 375.00 13.9
05/21/2015 14:00 28.29 60 85 24 64 4 236 10 230 332.00 13.9
05/21/2015 15:00 28.29 58 83 24 62 5 238 10 211 314.00 14.0
05/21/2015 16:00 28.29 58 84 24 60 3 253 10 230 199.00 13.9
05/21/2015 17:00 28.29 57 85 24 60 2 273 6 233 155.00 13.9
05/21/2015 18:00 28.29 56 85 23 58 3 251 7 250 114.00 13.8
05/21/2015 19:00 28.29 56 85 21 57 2 251 6 318 93.00 13.7
05/21/2015 20:00 28.29 54 91 22 54 2 244 6 281 36.00 13.5
05/21/2015 21:00 28.29 53 94 22 53 1 281 4 214 1.00 13.3
05/21/2015 22:00 28.29 53 97 23 53 2 246 3 323 0.00 13.2
05/21/2015 23:00 28.29 53 97 23 53 0 243 3 256 0.00 13.0
05/22/2015 00:00 28.29 53 98 24 53 1 312 3 106 0.00 12.9
05/22/2015 01:00 28.29 52 98 24 52 1 246 3 231 0.00 12.9

Later | Latest

Warning! This data is preliminary and subject to revision.

Show LAH Map | 24 Hours LAH Data | Plot all LAH Sensors | Daily LAH Data | LAH Info